Nearby METAR Reports

 

KMLE - Omaha/Millard, Nebraska, USA
Distance from station: NE 1mi, 2km
Updated: Tue, 16-Jul-2019 3:55am CDT
Partly cloudy
Partly cloudy
 Wind from calm
Wind: Calm
Temperature: 75°F , 24°C
Dew Point: 70°F , 21°C
Humidity: 83%
Barometer: 29.90 inHg , 1012.5 hPa
Clouds: Partly cloudy
Visibility: 10 miles , 16 km
Cloud details: Partly cloudy 6000 ft
Partly cloudy 9000 ft
2019/07/16 08:55 KMLE 160855Z AUTO 00000KT 10SM SCT060 SCT090 24/21 A2990 RMK AO2 T02420205
KOFF - Offutt Afb/Belle, Nebraska, USA
Distance from station: ESE 12mi, 20km
Updated: Tue, 16-Jul-2019 3:56am CDT
Partly cloudy
Partly cloudy
 Wind from S
Wind: S 6 mph , 9 km/h
Temperature: 77°F , 25°C
Dew Point: 68°F , 20°C
Humidity: 74%
Barometer: 29.93 inHg , 1013.5 hPa
Clouds: Partly cloudy
Visibility: 10 miles , 16 km
Cloud details: Partly cloudy 25000 ft
2019/07/16 08:56 KOFF 160856Z 17005KT 10SM SCT250 25/20 A2993 RMK SLP114 RVRNO $
 
KOMA - Omaha/Eppley, Nebraska, USA
Distance from station: NE 15mi, 24km
Updated: Tue, 16-Jul-2019 3:52am CDT
Overcast
Overcast
 Wind from S
Wind: S 7 mph , 11 km/h
Temperature: 79°F , 26°C
Dew Point: 68°F , 20°C
Humidity: 70%
Barometer: 29.88 inHg , 1011.9 hPa
Clouds: Overcast
Visibility: 10 miles , 16 km
Cloud details: Overcast 6000 ft
2019/07/16 08:52 KOMA 160852Z 17006KT 10SM OVC060 26/20 A2988 RMK AO2 SLP109 T02560200 55005
KBTA - Blair Muni, Nebraska, USA
Distance from station: N 16mi, 25km
Updated: Tue, 16-Jul-2019 3:55am CDT
Mostly cloudy
Mostly cloudy
 Wind from S
Wind: S 7 mph , 11 km/h
Temperature: 73°F , 23°C
Dew Point: 68°F , 20°C
Humidity: 83%
Barometer: 29.90 inHg , 1012.5 hPa
Clouds: Mostly cloudy
Visibility: 10 miles , 16 km
Cloud details: Mostly cloudy 6000 ft
2019/07/16 08:55 KBTA 160855Z AUTO 19006KT 10SM BKN060 23/20 A2990 RMK AO2 T02320197
 
KCBF - Council Bluffs, Iowa, USA
Distance from station: ENE 20mi, 32km
Updated: Tue, 16-Jul-2019 3:55am CDT
Overcast
Overcast
 Wind from SE
Wind: SE 5 mph , 7 km/h
Temperature: 73°F , 23°C
Dew Point: 73°F , 23°C
Humidity: 100%
Barometer: 29.88 inHg , 1011.9 hPa
Clouds: Overcast
Visibility: 10 miles , 16 km
Cloud details: Mostly cloudy 4900 ft
Overcast 6000 ft
2019/07/16 08:55 KCBF 160855Z AUTO 14004KT 10SM BKN049 OVC060 23/23 A2988 RMK AO2
KPMV - Plattsmouth Muni, Nebraska, USA
Distance from station: SE 20mi, 32km
Updated: Tue, 16-Jul-2019 3:55am CDT
Overcast
Overcast
 Wind from SSE
Wind: SSE 5 mph , 7 km/h
Temperature: 73°F , 23°C
Dew Point: 68°F , 20°C
Humidity: 83%
Barometer: 29.90 inHg , 1012.5 hPa
Clouds: Overcast
Visibility: 10 miles , 16 km
Cloud details: Mostly cloudy 5000 ft
Overcast 7500 ft
2019/07/16 08:55 KPMV 160855Z AUTO 16004KT 10SM BKN050 OVC075 23/20 A2990 RMK AO2 T02260203
 
KAHQ - Wahoo, Nebraska, USA
Distance from station: W 25mi, 40km
Updated: Tue, 16-Jul-2019 3:55am CDT
Clear
Clear
 Wind from S
Wind: S 3 mph , 6 km/h
Temperature: 72°F , 22°C
Dew Point: 70°F , 21°C
Humidity: 94%
Barometer: 29.90 inHg , 1012.5 hPa
Clouds: Clear
Visibility: 10 miles , 16 km
2019/07/16 08:55 KAHQ 160855Z AUTO 18003KT 10SM CLR 22/21 A2990 RMK AO2 T02180208
KFET - Fremont Muni Arp, Nebraska, USA
Distance from station: NW 27mi, 43km
Updated: Tue, 16-Jul-2019 3:55am CDT
Partly cloudy
Partly cloudy
 Wind from SSW
Wind: SSW 3 mph , 6 km/h
Temperature: 75°F , 24°C
Dew Point: 68°F , 20°C
Humidity: 78%
Barometer: 29.90 inHg , 1012.5 hPa
Clouds: Partly cloudy
Visibility: 10 miles , 16 km
Cloud details: Partly cloudy 5500 ft
2019/07/16 08:55 KFET 160855Z AUTO 20003KT 10SM SCT055 24/20 A2990 RMK AO2 LTG DSNT W T02410200
 
KTQE - Tekamah, Nebraska, USA
Distance from station: N 40mi, 64km
Updated: Tue, 16-Jul-2019 3:54am CDT
Clear
Clear
 Wind from S
Wind: S 7 mph , 11 km/h
Temperature: 73°F , 23°C
Dew Point: 68°F , 20°C
Humidity: 83%
Barometer: 29.87 inHg , 1011.5 hPa
Clouds: Clear
Visibility: 10 miles , 16 km
2019/07/16 08:54 KTQE 160854Z AUTO 17006KT 10SM CLR 23/20 A2987 RMK AO2 SLP099 T02280200 56009
KLNK - Lincoln, Nebraska, USA
Distance from station: SW 41mi, 65km
Updated: Tue, 16-Jul-2019 3:54am CDT
Clear
Clear
 Wind from SSE
Wind: SSE 3 mph , 6 km/h
Temperature: 73°F , 23°C
Dew Point: 66°F , 19°C
Humidity: 78%
Barometer: 29.90 inHg , 1012.5 hPa
Clouds: Clear
Visibility: 10 miles , 16 km
2019/07/16 08:54 KLNK 160854Z AUTO 15003KT 10SM CLR 23/19 A2990 RMK AO2 SLP112 T02280194 55002
 
KAFK - Nebraska City, Nebraska, USA
Distance from station: SSE 43mi, 70km
Updated: Tue, 16-Jul-2019 3:55am CDT
Clear
Clear
 Wind from S
Wind: S 7 mph , 11 km/h
Temperature: 70°F , 21°C
Dew Point: 68°F , 20°C
Humidity: 94%
Barometer: 29.90 inHg , 1012.5 hPa
Clouds: Clear
Visibility: 10 miles , 16 km
2019/07/16 08:55 KAFK 160855Z AUTO 17006KT 10SM CLR 21/20 A2990 RMK AO2 T02080200
KRDK - Red Oak, Iowa, USA
Distance from station: ESE 47mi, 75km
Updated: Tue, 16-Jul-2019 3:55am CDT
Mostly cloudy
Mostly cloudy
 Wind from calm
Wind: Calm
Temperature: 70°F , 21°C
Dew Point: 68°F , 20°C
Humidity: 94%
Barometer: 29.91 inHg , 1012.9 hPa
Clouds: Mostly cloudy
Visibility: 10 miles , 16 km
Cloud details: Mostly cloudy 5000 ft
Mostly cloudy 5500 ft
2019/07/16 08:55 KRDK 160855Z AUTO 00000KT 10SM BKN050 BKN055 21/20 A2991 RMK AO2
 
KSDA - Shenandoah Muni, Iowa, USA
Distance from station: SE 48mi, 77km
Updated: Tue, 16-Jul-2019 3:55am CDT
Few Clouds
Few Clouds
 Wind from calm
Wind: Calm
Temperature: 70°F , 21°C
Dew Point: 68°F , 20°C
Humidity: 94%
Barometer: 29.89 inHg , 1012.2 hPa
Clouds: Few Clouds
Visibility: 10 miles , 16 km
Cloud details: Few Clouds 5000 ft
2019/07/16 08:55 KSDA 160855Z AUTO 00000KT 10SM FEW050 21/20 A2989 RMK AO2
KHNR - Harlan Muni, Iowa, USA
Distance from station: NE 49mi, 80km
Updated: Tue, 16-Jul-2019 3:55am CDT
Overcast
Overcast
 Wind from SSW
Wind: SSW 6 mph , 9 km/h
Temperature: 72°F , 22°C
Dew Point: 70°F , 21°C
Humidity: 94%
Barometer: 29.90 inHg , 1012.5 hPa
Clouds: Overcast
Visibility: 10 miles , 16 km
Cloud details: Mostly cloudy 4300 ft
Overcast 4900 ft
2019/07/16 08:55 KHNR 160855Z AUTO 20005KT 10SM BKN043 OVC049 22/21 A2990 RMK AO2